sensor_id;sensor_type;location;lat;lon;timestamp;temperature;humidity
9951;DHT22;24074;49.254;6.702;2022-12-07T00:01:17;3.20;99.90
9951;DHT22;24074;49.254;6.702;2022-12-07T00:03:44;3.20;99.90
9951;DHT22;24074;49.254;6.702;2022-12-07T00:06:12;3.20;99.90
9951;DHT22;24074;49.254;6.702;2022-12-07T00:08:38;3.30;99.90
9951;DHT22;24074;49.254;6.702;2022-12-07T00:11:10;3.20;99.90
9951;DHT22;24074;49.254;6.702;2022-12-07T00:13:36;3.20;99.90
9951;DHT22;24074;49.254;6.702;2022-12-07T00:16:06;3.20;99.90
9951;DHT22;24074;49.254;6.702;2022-12-07T00:18:32;3.10;99.90
9951;DHT22;24074;49.254;6.702;2022-12-07T00:21:26;3.10;99.90
9951;DHT22;24074;49.254;6.702;2022-12-07T00:23:53;3.10;99.90
9951;DHT22;24074;49.254;6.702;2022-12-07T00:26:22;3.10;99.90
9951;DHT22;24074;49.254;6.702;2022-12-07T00:28:56;3.20;99.90
9951;DHT22;24074;49.254;6.702;2022-12-07T00:31:24;3.30;99.90
9951;DHT22;24074;49.254;6.702;2022-12-07T00:33:50;3.30;99.90
9951;DHT22;24074;49.254;6.702;2022-12-07T00:36:18;3.30;99.90
9951;DHT22;24074;49.254;6.702;2022-12-07T00:38:44;3.20;99.90
9951;DHT22;24074;49.254;6.702;2022-12-07T00:41:15;3.10;99.90
9951;DHT22;24074;49.254;6.702;2022-12-07T00:43:43;3.00;99.90
9951;DHT22;24074;49.254;6.702;2022-12-07T00:46:09;2.90;99.90
9951;DHT22;24074;49.254;6.702;2022-12-07T00:48:34;2.90;99.90
9951;DHT22;24074;49.254;6.702;2022-12-07T00:51:01;2.90;99.90
9951;DHT22;24074;49.254;6.702;2022-12-07T00:53:27;3.00;99.90
9951;DHT22;24074;49.254;6.702;2022-12-07T00:55:52;3.10;99.90
9951;DHT22;24074;49.254;6.702;2022-12-07T00:58:19;3.10;99.90
9951;DHT22;24074;49.254;6.702;2022-12-07T01:00:45;3.00;99.90
9951;DHT22;24074;49.254;6.702;2022-12-07T01:03:12;2.90;99.90
9951;DHT22;24074;49.254;6.702;2022-12-07T01:05:38;2.90;99.90
9951;DHT22;24074;49.254;6.702;2022-12-07T01:08:05;2.90;99.90
9951;DHT22;24074;49.254;6.702;2022-12-07T01:10:31;2.90;99.90
9951;DHT22;24074;49.254;6.702;2022-12-07T01:12:57;2.80;99.90
9951;DHT22;24074;49.254;6.702;2022-12-07T01:15:24;2.60;99.90
9951;DHT22;24074;49.254;6.702;2022-12-07T01:17:50;2.50;99.90
9951;DHT22;24074;49.254;6.702;2022-12-07T01:20:16;2.50;99.90
9951;DHT22;24074;49.254;6.702;2022-12-07T01:22:42;2.50;99.90
9951;DHT22;24074;49.254;6.702;2022-12-07T01:25:10;2.40;99.90
9951;DHT22;24074;49.254;6.702;2022-12-07T01:27:36;2.50;99.90
9951;DHT22;24074;49.254;6.702;2022-12-07T01:30:04;2.50;99.90
9951;DHT22;24074;49.254;6.702;2022-12-07T01:32:30;2.50;99.90
9951;DHT22;24074;49.254;6.702;2022-12-07T01:34:55;2.50;99.90
9951;DHT22;24074;49.254;6.702;2022-12-07T01:37:21;2.60;99.90
9951;DHT22;24074;49.254;6.702;2022-12-07T01:39:50;2.60;99.90
9951;DHT22;24074;49.254;6.702;2022-12-07T01:42:17;2.60;99.90
9951;DHT22;24074;49.254;6.702;2022-12-07T01:47:50;2.80;99.90
9951;DHT22;24074;49.254;6.702;2022-12-07T01:50:17;2.70;99.90
9951;DHT22;24074;49.254;6.702;2022-12-07T01:52:44;2.80;99.90
9951;DHT22;24074;49.254;6.702;2022-12-07T01:55:14;2.80;99.90
9951;DHT22;24074;49.254;6.702;2022-12-07T01:57:43;2.80;99.90
9951;DHT22;24074;49.254;6.702;2022-12-07T02:00:11;2.80;99.90
9951;DHT22;24074;49.254;6.702;2022-12-07T02:02:43;2.80;99.90
9951;DHT22;24074;49.254;6.702;2022-12-07T02:05:09;2.80;99.90
9951;DHT22;24074;49.254;6.702;2022-12-07T02:07:37;2.90;99.90
9951;DHT22;24074;49.254;6.702;2022-12-07T02:10:20;2.90;99.90
9951;DHT22;24074;49.254;6.702;2022-12-07T02:12:49;2.90;99.90
9951;DHT22;24074;49.254;6.702;2022-12-07T02:15:17;2.90;99.90
9951;DHT22;24074;49.254;6.702;2022-12-07T02:18:24;2.90;99.90
9951;DHT22;24074;49.254;6.702;2022-12-07T02:21:03;3.00;99.90
9951;DHT22;24074;49.254;6.702;2022-12-07T02:24:28;3.10;99.90
9951;DHT22;24074;49.254;6.702;2022-12-07T02:27:07;3.20;99.90
9951;DHT22;24074;49.254;6.702;2022-12-07T02:32:21;3.20;99.90
9951;DHT22;24074;49.254;6.702;2022-12-07T02:35:17;3.10;99.90
9951;DHT22;24074;49.254;6.702;2022-12-07T02:40:27;3.20;99.90
9951;DHT22;24074;49.254;6.702;2022-12-07T02:43:04;3.20;99.90
9951;DHT22;24074;49.254;6.702;2022-12-07T02:45:31;3.10;99.90
9951;DHT22;24074;49.254;6.702;2022-12-07T02:47:59;3.20;99.90
9951;DHT22;24074;49.254;6.702;2022-12-07T02:50:26;3.10;99.90
9951;DHT22;24074;49.254;6.702;2022-12-07T02:52:51;3.10;99.90
9951;DHT22;24074;49.254;6.702;2022-12-07T02:55:19;3.00;99.90
9951;DHT22;24074;49.254;6.702;2022-12-07T02:58:12;2.90;99.90
9951;DHT22;24074;49.254;6.702;2022-12-07T03:00:52;2.80;99.90
9951;DHT22;24074;49.254;6.702;2022-12-07T03:03:19;2.90;99.90
9951;DHT22;24074;49.254;6.702;2022-12-07T03:06:11;2.90;99.90
9951;DHT22;24074;49.254;6.702;2022-12-07T03:08:48;2.90;99.90
9951;DHT22;24074;49.254;6.702;2022-12-07T03:11:25;2.90;99.90
9951;DHT22;24074;49.254;6.702;2022-12-07T03:14:13;2.80;99.90
9951;DHT22;24074;49.254;6.702;2022-12-07T03:16:45;2.80;99.90
9951;DHT22;24074;49.254;6.702;2022-12-07T03:19:18;2.90;99.90
9951;DHT22;24074;49.254;6.702;2022-12-07T03:21:49;2.90;99.90
9951;DHT22;24074;49.254;6.702;2022-12-07T03:24:24;2.90;99.90
9951;DHT22;24074;49.254;6.702;2022-12-07T03:27:04;2.90;99.90
9951;DHT22;24074;49.254;6.702;2022-12-07T03:29:36;2.80;99.90
9951;DHT22;24074;49.254;6.702;2022-12-07T03:32:29;2.90;99.90
9951;DHT22;24074;49.254;6.702;2022-12-07T03:35:00;3.00;99.90
9951;DHT22;24074;49.254;6.702;2022-12-07T03:37:40;3.00;99.90
9951;DHT22;24074;49.254;6.702;2022-12-07T03:40:29;3.10;99.90
9951;DHT22;24074;49.254;6.702;2022-12-07T03:43:00;3.10;99.90
9951;DHT22;24074;49.254;6.702;2022-12-07T03:45:54;3.10;99.90
9951;DHT22;24074;49.254;6.702;2022-12-07T03:48:28;3.10;99.90
9951;DHT22;24074;49.254;6.702;2022-12-07T03:51:07;3.00;99.90
9951;DHT22;24074;49.254;6.702;2022-12-07T03:53:44;3.10;99.90
9951;DHT22;24074;49.254;6.702;2022-12-07T03:56:12;3.10;99.90
9951;DHT22;24074;49.254;6.702;2022-12-07T03:58:38;3.20;99.90
9951;DHT22;24074;49.254;6.702;2022-12-07T04:01:05;3.20;99.90
9951;DHT22;24074;49.254;6.702;2022-12-07T04:03:31;3.10;99.90
9951;DHT22;24074;49.254;6.702;2022-12-07T04:05:57;3.10;99.90
9951;DHT22;24074;49.254;6.702;2022-12-07T04:08:24;3.00;99.90
9951;DHT22;24074;49.254;6.702;2022-12-07T04:10:49;3.10;99.90
9951;DHT22;24074;49.254;6.702;2022-12-07T04:13:15;3.00;99.90
9951;DHT22;24074;49.254;6.702;2022-12-07T04:15:41;3.00;99.90
9951;DHT22;24074;49.254;6.702;2022-12-07T04:18:06;3.00;99.90
9951;DHT22;24074;49.254;6.702;2022-12-07T04:20:32;3.00;99.90
9951;DHT22;24074;49.254;6.702;2022-12-07T04:22:57;3.10;99.90
9951;DHT22;24074;49.254;6.702;2022-12-07T04:25:23;3.20;99.90
9951;DHT22;24074;49.254;6.702;2022-12-07T04:27:48;3.10;99.90
9951;DHT22;24074;49.254;6.702;2022-12-07T04:30:14;3.10;99.90
9951;DHT22;24074;49.254;6.702;2022-12-07T04:32:40;3.00;99.90
9951;DHT22;24074;49.254;6.702;2022-12-07T04:35:06;3.00;99.90
9951;DHT22;24074;49.254;6.702;2022-12-07T04:37:32;3.00;99.90
9951;DHT22;24074;49.254;6.702;2022-12-07T04:39:57;3.00;99.90
9951;DHT22;24074;49.254;6.702;2022-12-07T04:42:23;2.90;99.90
9951;DHT22;24074;49.254;6.702;2022-12-07T04:44:48;2.90;99.90
9951;DHT22;24074;49.254;6.702;2022-12-07T04:47:14;2.90;99.90
9951;DHT22;24074;49.254;6.702;2022-12-07T04:49:39;2.90;99.90
9951;DHT22;24074;49.254;6.702;2022-12-07T04:52:05;2.80;99.90
9951;DHT22;24074;49.254;6.702;2022-12-07T04:54:31;2.80;99.90
9951;DHT22;24074;49.254;6.702;2022-12-07T04:56:56;2.80;99.90
9951;DHT22;24074;49.254;6.702;2022-12-07T04:59:22;2.90;99.90
9951;DHT22;24074;49.254;6.702;2022-12-07T05:01:47;3.00;99.90
9951;DHT22;24074;49.254;6.702;2022-12-07T05:04:13;2.90;99.90
9951;DHT22;24074;49.254;6.702;2022-12-07T05:06:39;2.90;99.90
9951;DHT22;24074;49.254;6.702;2022-12-07T05:09:05;2.90;99.90
9951;DHT22;24074;49.254;6.702;2022-12-07T05:11:30;2.90;99.90
9951;DHT22;24074;49.254;6.702;2022-12-07T05:14:15;2.90;99.90
9951;DHT22;24074;49.254;6.702;2022-12-07T05:16:41;2.90;99.90
9951;DHT22;24074;49.254;6.702;2022-12-07T05:19:08;3.00;99.90
9951;DHT22;24074;49.254;6.702;2022-12-07T05:21:34;3.10;99.90
9951;DHT22;24074;49.254;6.702;2022-12-07T05:24:00;3.10;99.90
9951;DHT22;24074;49.254;6.702;2022-12-07T05:26:26;3.20;99.90
9951;DHT22;24074;49.254;6.702;2022-12-07T05:28:53;3.30;99.90
9951;DHT22;24074;49.254;6.702;2022-12-07T05:31:19;3.30;99.90
9951;DHT22;24074;49.254;6.702;2022-12-07T05:33:44;3.40;99.90
9951;DHT22;24074;49.254;6.702;2022-12-07T05:36:10;3.30;99.90
9951;DHT22;24074;49.254;6.702;2022-12-07T05:38:36;3.30;99.90
9951;DHT22;24074;49.254;6.702;2022-12-07T05:41:03;3.30;99.90
9951;DHT22;24074;49.254;6.702;2022-12-07T05:43:29;3.30;99.90
9951;DHT22;24074;49.254;6.702;2022-12-07T05:45:55;3.30;99.90
9951;DHT22;24074;49.254;6.702;2022-12-07T05:48:21;3.30;99.90
9951;DHT22;24074;49.254;6.702;2022-12-07T05:50:50;3.20;99.90
9951;DHT22;24074;49.254;6.702;2022-12-07T05:53:16;3.20;99.90
9951;DHT22;24074;49.254;6.702;2022-12-07T05:55:42;3.20;99.90
9951;DHT22;24074;49.254;6.702;2022-12-07T05:58:08;3.10;99.90
9951;DHT22;24074;49.254;6.702;2022-12-07T06:00:55;3.20;99.90
9951;DHT22;24074;49.254;6.702;2022-12-07T06:03:20;3.10;99.90
9951;DHT22;24074;49.254;6.702;2022-12-07T06:05:46;3.10;99.90
9951;DHT22;24074;49.254;6.702;2022-12-07T06:08:11;3.10;99.90
9951;DHT22;24074;49.254;6.702;2022-12-07T06:10:37;3.10;99.90
9951;DHT22;24074;49.254;6.702;2022-12-07T06:13:03;3.00;99.90
9951;DHT22;24074;49.254;6.702;2022-12-07T06:15:28;3.20;99.90
9951;DHT22;24074;49.254;6.702;2022-12-07T06:17:54;3.20;99.90
9951;DHT22;24074;49.254;6.702;2022-12-07T06:20:19;3.20;99.90
9951;DHT22;24074;49.254;6.702;2022-12-07T06:22:45;3.20;99.90
9951;DHT22;24074;49.254;6.702;2022-12-07T06:25:10;3.20;99.90
9951;DHT22;24074;49.254;6.702;2022-12-07T06:27:36;3.30;99.90
9951;DHT22;24074;49.254;6.702;2022-12-07T06:30:02;3.30;99.90
9951;DHT22;24074;49.254;6.702;2022-12-07T06:32:32;3.40;99.90
9951;DHT22;24074;49.254;6.702;2022-12-07T06:34:59;3.40;99.90
9951;DHT22;24074;49.254;6.702;2022-12-07T06:37:24;3.50;99.90
9951;DHT22;24074;49.254;6.702;2022-12-07T06:39:50;3.50;99.90
9951;DHT22;24074;49.254;6.702;2022-12-07T06:42:18;3.50;99.90
9951;DHT22;24074;49.254;6.702;2022-12-07T06:44:44;3.50;99.90
9951;DHT22;24074;49.254;6.702;2022-12-07T06:47:09;3.40;99.90
9951;DHT22;24074;49.254;6.702;2022-12-07T06:49:36;3.50;99.90
9951;DHT22;24074;49.254;6.702;2022-12-07T06:52:02;3.70;99.90
9951;DHT22;24074;49.254;6.702;2022-12-07T06:54:27;3.70;99.90
9951;DHT22;24074;49.254;6.702;2022-12-07T06:56:55;3.70;99.90
9951;DHT22;24074;49.254;6.702;2022-12-07T06:59:21;3.60;99.90
9951;DHT22;24074;49.254;6.702;2022-12-07T07:01:46;3.60;99.90
9951;DHT22;24074;49.254;6.702;2022-12-07T07:04:12;3.60;99.90
9951;DHT22;24074;49.254;6.702;2022-12-07T07:06:37;3.60;99.90
9951;DHT22;24074;49.254;6.702;2022-12-07T07:09:03;3.50;99.90
9951;DHT22;24074;49.254;6.702;2022-12-07T07:11:28;3.40;99.90
9951;DHT22;24074;49.254;6.702;2022-12-07T07:13:54;3.40;99.90
9951;DHT22;24074;49.254;6.702;2022-12-07T07:16:22;3.50;99.90
9951;DHT22;24074;49.254;6.702;2022-12-07T07:18:48;3.60;99.90
9951;DHT22;24074;49.254;6.702;2022-12-07T07:21:14;3.70;99.90
9951;DHT22;24074;49.254;6.702;2022-12-07T07:23:39;3.80;99.90
9951;DHT22;24074;49.254;6.702;2022-12-07T07:26:05;3.80;99.90
9951;DHT22;24074;49.254;6.702;2022-12-07T07:28:30;3.80;99.90
9951;DHT22;24074;49.254;6.702;2022-12-07T07:30:56;3.80;99.90
9951;DHT22;24074;49.254;6.702;2022-12-07T07:33:21;3.70;99.90
9951;DHT22;24074;49.254;6.702;2022-12-07T07:35:47;3.70;99.90
9951;DHT22;24074;49.254;6.702;2022-12-07T07:38:12;3.70;99.90
9951;DHT22;24074;49.254;6.702;2022-12-07T07:40:38;3.80;99.90
9951;DHT22;24074;49.254;6.702;2022-12-07T07:43:04;3.70;99.90
9951;DHT22;24074;49.254;6.702;2022-12-07T07:45:29;3.60;99.90
9951;DHT22;24074;49.254;6.702;2022-12-07T07:47:55;3.60;99.90
9951;DHT22;24074;49.254;6.702;2022-12-07T07:50:20;3.60;99.90
9951;DHT22;24074;49.254;6.702;2022-12-07T07:52:46;3.60;99.90
9951;DHT22;24074;49.254;6.702;2022-12-07T07:55:13;3.70;99.90
9951;DHT22;24074;49.254;6.702;2022-12-07T07:57:39;3.70;99.90
9951;DHT22;24074;49.254;6.702;2022-12-07T08:00:07;3.70;99.90
9951;DHT22;24074;49.254;6.702;2022-12-07T08:02:33;3.70;99.90
9951;DHT22;24074;49.254;6.702;2022-12-07T08:04:59;3.80;99.90
9951;DHT22;24074;49.254;6.702;2022-12-07T08:07:25;3.80;99.90
9951;DHT22;24074;49.254;6.702;2022-12-07T08:09:51;4.00;99.90
9951;DHT22;24074;49.254;6.702;2022-12-07T08:12:17;4.10;99.90
9951;DHT22;24074;49.254;6.702;2022-12-07T08:14:43;4.20;99.90
9951;DHT22;24074;49.254;6.702;2022-12-07T08:17:08;4.10;99.90
9951;DHT22;24074;49.254;6.702;2022-12-07T08:19:34;4.10;99.90
9951;DHT22;24074;49.254;6.702;2022-12-07T08:22:00;4.20;99.90
9951;DHT22;24074;49.254;6.702;2022-12-07T08:24:25;4.20;99.90
9951;DHT22;24074;49.254;6.702;2022-12-07T08:26:51;4.40;99.90
9951;DHT22;24074;49.254;6.702;2022-12-07T08:29:17;4.40;99.90
9951;DHT22;24074;49.254;6.702;2022-12-07T08:31:43;4.40;99.90
9951;DHT22;24074;49.254;6.702;2022-12-07T08:34:11;4.50;99.90
9951;DHT22;24074;49.254;6.702;2022-12-07T08:36:37;4.50;99.90
9951;DHT22;24074;49.254;6.702;2022-12-07T08:39:03;4.40;99.90
9951;DHT22;24074;49.254;6.702;2022-12-07T08:41:28;4.50;99.90
9951;DHT22;24074;49.254;6.702;2022-12-07T08:43:54;4.40;99.90
9951;DHT22;24074;49.254;6.702;2022-12-07T08:46:24;4.50;99.90
9951;DHT22;24074;49.254;6.702;2022-12-07T08:48:58;4.50;99.90
9951;DHT22;24074;49.254;6.702;2022-12-07T08:51:24;4.50;99.90
9951;DHT22;24074;49.254;6.702;2022-12-07T08:53:51;4.50;99.90
9951;DHT22;24074;49.254;6.702;2022-12-07T08:56:18;4.50;99.90
9951;DHT22;24074;49.254;6.702;2022-12-07T08:58:44;4.50;99.90
9951;DHT22;24074;49.254;6.702;2022-12-07T09:01:10;4.50;99.90
9951;DHT22;24074;49.254;6.702;2022-12-07T09:03:36;4.60;99.90
9951;DHT22;24074;49.254;6.702;2022-12-07T09:06:01;4.50;99.90
9951;DHT22;24074;49.254;6.702;2022-12-07T09:08:32;4.60;99.90
9951;DHT22;24074;49.254;6.702;2022-12-07T09:10:59;4.50;99.90
9951;DHT22;24074;49.254;6.702;2022-12-07T09:13:24;4.50;99.90
9951;DHT22;24074;49.254;6.702;2022-12-07T09:15:50;4.40;99.90
9951;DHT22;24074;49.254;6.702;2022-12-07T09:18:16;4.40;99.90
9951;DHT22;24074;49.254;6.702;2022-12-07T09:20:41;4.50;99.90
9951;DHT22;24074;49.254;6.702;2022-12-07T09:23:10;4.50;99.90
9951;DHT22;24074;49.254;6.702;2022-12-07T09:25:35;4.50;99.90
9951;DHT22;24074;49.254;6.702;2022-12-07T09:28:01;4.50;99.90
9951;DHT22;24074;49.254;6.702;2022-12-07T09:30:28;4.60;99.90
9951;DHT22;24074;49.254;6.702;2022-12-07T09:32:55;4.70;99.90
9951;DHT22;24074;49.254;6.702;2022-12-07T09:35:21;4.70;99.90
9951;DHT22;24074;49.254;6.702;2022-12-07T09:37:47;4.80;99.90
9951;DHT22;24074;49.254;6.702;2022-12-07T09:40:13;4.80;99.90
9951;DHT22;24074;49.254;6.702;2022-12-07T09:42:44;4.80;99.90
9951;DHT22;24074;49.254;6.702;2022-12-07T09:45:16;4.80;99.90
9951;DHT22;24074;49.254;6.702;2022-12-07T09:47:42;5.00;99.90
9951;DHT22;24074;49.254;6.702;2022-12-07T09:50:18;5.00;99.90
9951;DHT22;24074;49.254;6.702;2022-12-07T09:52:45;4.90;99.90
9951;DHT22;24074;49.254;6.702;2022-12-07T09:55:24;5.00;99.90
9951;DHT22;24074;49.254;6.702;2022-12-07T09:57:52;5.10;99.90
9951;DHT22;24074;49.254;6.702;2022-12-07T10:00:21;5.20;99.90
9951;DHT22;24074;49.254;6.702;2022-12-07T10:05:20;5.30;99.90
9951;DHT22;24074;49.254;6.702;2022-12-07T10:07:47;5.30;99.90
9951;DHT22;24074;49.254;6.702;2022-12-07T10:10:15;5.40;99.90
9951;DHT22;24074;49.254;6.702;2022-12-07T10:15:19;5.50;99.90
9951;DHT22;24074;49.254;6.702;2022-12-07T10:17:50;5.40;99.90
9951;DHT22;24074;49.254;6.702;2022-12-07T10:20:25;5.40;99.90
9951;DHT22;24074;49.254;6.702;2022-12-07T10:22:57;5.30;99.90
9951;DHT22;24074;49.254;6.702;2022-12-07T10:25:28;5.30;99.90
9951;DHT22;24074;49.254;6.702;2022-12-07T10:30:24;5.30;99.90
9951;DHT22;24074;49.254;6.702;2022-12-07T10:32:49;5.30;99.90
9951;DHT22;24074;49.254;6.702;2022-12-07T10:35:30;5.30;99.90
9951;DHT22;24074;49.254;6.702;2022-12-07T10:37:58;5.30;99.90
9951;DHT22;24074;49.254;6.702;2022-12-07T10:53:34;5.40;99.90
9951;DHT22;24074;49.254;6.702;2022-12-07T10:56:24;5.50;99.90
9951;DHT22;24074;49.254;6.702;2022-12-07T10:59:18;5.60;99.90
9951;DHT22;24074;49.254;6.702;2022-12-07T11:01:57;5.70;99.90
9951;DHT22;24074;49.254;6.702;2022-12-07T11:04:35;5.80;99.90
9951;DHT22;24074;49.254;6.702;2022-12-07T11:10:02;5.80;99.90
9951;DHT22;24074;49.254;6.702;2022-12-07T11:15:18;5.80;99.90
9951;DHT22;24074;49.254;6.702;2022-12-07T11:18:11;5.70;99.90
9951;DHT22;24074;49.254;6.702;2022-12-07T11:37:23;5.80;99.90
9951;DHT22;24074;49.254;6.702;2022-12-07T11:39:55;5.80;99.90
9951;DHT22;24074;49.254;6.702;2022-12-07T11:42:25;5.90;99.90
9951;DHT22;24074;49.254;6.702;2022-12-07T11:48:20;6.10;99.90
9951;DHT22;24074;49.254;6.702;2022-12-07T11:50:57;6.10;99.90
9951;DHT22;24074;49.254;6.702;2022-12-07T11:53:46;6.10;99.90
9951;DHT22;24074;49.254;6.702;2022-12-07T11:56:16;6.30;99.90
9951;DHT22;24074;49.254;6.702;2022-12-07T11:58:59;6.40;99.90
9951;DHT22;24074;49.254;6.702;2022-12-07T12:01:39;6.30;99.90
9951;DHT22;24074;49.254;6.702;2022-12-07T12:09:12;6.40;99.90
9951;DHT22;24074;49.254;6.702;2022-12-07T12:15:01;6.30;99.90
9951;DHT22;24074;49.254;6.702;2022-12-07T12:20:45;6.10;99.90
9951;DHT22;24074;49.254;6.702;2022-12-07T12:22:53;6.20;99.90
9951;DHT22;24074;49.254;6.702;2022-12-07T12:25:34;6.20;99.90
9951;DHT22;24074;49.254;6.702;2022-12-07T12:28:02;6.30;99.90
9951;DHT22;24074;49.254;6.702;2022-12-07T12:33:27;6.20;99.90
9951;DHT22;24074;49.254;6.702;2022-12-07T12:46:54;5.80;99.90
9951;DHT22;24074;49.254;6.702;2022-12-07T12:51:47;5.70;99.90
9951;DHT22;24074;49.254;6.702;2022-12-07T12:54:25;5.70;99.90
9951;DHT22;24074;49.254;6.702;2022-12-07T13:02:46;5.70;99.90
9951;DHT22;24074;49.254;6.702;2022-12-07T13:05:00;5.70;99.90
9951;DHT22;24074;49.254;6.702;2022-12-07T13:10:32;5.70;99.90
9951;DHT22;24074;49.254;6.702;2022-12-07T13:15:54;5.60;99.90
9951;DHT22;24074;49.254;6.702;2022-12-07T13:20:59;5.60;99.90
9951;DHT22;24074;49.254;6.702;2022-12-07T13:26:12;5.70;99.90
9951;DHT22;24074;49.254;6.702;2022-12-07T13:28:45;5.80;99.90
9951;DHT22;24074;49.254;6.702;2022-12-07T13:33:56;5.60;99.90
9951;DHT22;24074;49.254;6.702;2022-12-07T13:36:24;5.60;99.90
9951;DHT22;24074;49.254;6.702;2022-12-07T13:41:27;5.50;99.90
9951;DHT22;24074;49.254;6.702;2022-12-07T13:49:29;5.70;99.90
9951;DHT22;24074;49.254;6.702;2022-12-07T13:52:06;5.70;99.90
9951;DHT22;24074;49.254;6.702;2022-12-07T13:54:32;5.80;99.90
9951;DHT22;24074;49.254;6.702;2022-12-07T13:56:58;5.80;99.90
9951;DHT22;24074;49.254;6.702;2022-12-07T13:59:25;5.80;99.90
9951;DHT22;24074;49.254;6.702;2022-12-07T14:01:53;5.70;99.90
9951;DHT22;24074;49.254;6.702;2022-12-07T14:06:53;5.90;99.90
9951;DHT22;24074;49.254;6.702;2022-12-07T14:09:26;5.90;99.90
9951;DHT22;24074;49.254;6.702;2022-12-07T14:11:55;5.90;99.90
9951;DHT22;24074;49.254;6.702;2022-12-07T14:14:25;5.90;99.90
9951;DHT22;24074;49.254;6.702;2022-12-07T14:17:12;5.80;99.90
9951;DHT22;24074;49.254;6.702;2022-12-07T14:19:52;5.70;99.90
9951;DHT22;24074;49.254;6.702;2022-12-07T14:22:24;5.70;99.90
9951;DHT22;24074;49.254;6.702;2022-12-07T14:24:57;5.70;99.90
9951;DHT22;24074;49.254;6.702;2022-12-07T14:27:24;5.70;99.90
9951;DHT22;24074;49.254;6.702;2022-12-07T14:29:56;5.70;99.90
9951;DHT22;24074;49.254;6.702;2022-12-07T14:32:25;5.70;99.90
9951;DHT22;24074;49.254;6.702;2022-12-07T14:34:58;5.60;99.90
9951;DHT22;24074;49.254;6.702;2022-12-07T14:37:25;5.60;99.90
9951;DHT22;24074;49.254;6.702;2022-12-07T14:39:51;5.60;99.90
9951;DHT22;24074;49.254;6.702;2022-12-07T14:42:17;5.60;99.90
9951;DHT22;24074;49.254;6.702;2022-12-07T14:44:43;5.60;99.90
9951;DHT22;24074;49.254;6.702;2022-12-07T14:47:10;5.50;99.90
9951;DHT22;24074;49.254;6.702;2022-12-07T14:49:36;5.50;99.90
9951;DHT22;24074;49.254;6.702;2022-12-07T14:52:02;5.40;99.90
9951;DHT22;24074;49.254;6.702;2022-12-07T14:54:31;5.50;99.90
9951;DHT22;24074;49.254;6.702;2022-12-07T14:56:57;5.40;99.90
9951;DHT22;24074;49.254;6.702;2022-12-07T14:59:23;5.40;99.90
9951;DHT22;24074;49.254;6.702;2022-12-07T15:01:49;5.40;99.90
9951;DHT22;24074;49.254;6.702;2022-12-07T15:04:15;5.40;99.90
9951;DHT22;24074;49.254;6.702;2022-12-07T15:06:40;5.30;99.90
9951;DHT22;24074;49.254;6.702;2022-12-07T15:09:10;5.30;99.90
9951;DHT22;24074;49.254;6.702;2022-12-07T15:11:36;5.20;99.90
9951;DHT22;24074;49.254;6.702;2022-12-07T15:14:02;5.20;99.90
9951;DHT22;24074;49.254;6.702;2022-12-07T15:16:34;5.20;99.90
9951;DHT22;24074;49.254;6.702;2022-12-07T15:19:00;5.10;99.90
9951;DHT22;24074;49.254;6.702;2022-12-07T15:21:25;5.00;99.90
9951;DHT22;24074;49.254;6.702;2022-12-07T15:23:51;5.00;99.90
9951;DHT22;24074;49.254;6.702;2022-12-07T15:26:17;4.90;99.90
9951;DHT22;24074;49.254;6.702;2022-12-07T15:28:42;4.80;99.90
9951;DHT22;24074;49.254;6.702;2022-12-07T15:31:16;4.80;99.90
9951;DHT22;24074;49.254;6.702;2022-12-07T15:33:42;4.80;99.90
9951;DHT22;24074;49.254;6.702;2022-12-07T15:36:08;4.80;99.90
9951;DHT22;24074;49.254;6.702;2022-12-07T15:38:40;4.70;99.90
9951;DHT22;24074;49.254;6.702;2022-12-07T15:41:06;4.60;99.90
9951;DHT22;24074;49.254;6.702;2022-12-07T15:43:31;4.60;99.90
9951;DHT22;24074;49.254;6.702;2022-12-07T15:46:16;4.50;99.90
9951;DHT22;24074;49.254;6.702;2022-12-07T15:48:41;4.50;99.90
9951;DHT22;24074;49.254;6.702;2022-12-07T15:51:08;4.40;99.90
9951;DHT22;24074;49.254;6.702;2022-12-07T15:53:35;4.40;99.90
9951;DHT22;24074;49.254;6.702;2022-12-07T15:56:00;4.40;99.90
9951;DHT22;24074;49.254;6.702;2022-12-07T15:58:26;4.40;99.90
9951;DHT22;24074;49.254;6.702;2022-12-07T16:00:52;4.40;99.90
9951;DHT22;24074;49.254;6.702;2022-12-07T16:03:18;4.30;99.90
9951;DHT22;24074;49.254;6.702;2022-12-07T16:05:49;4.20;99.90
9951;DHT22;24074;49.254;6.702;2022-12-07T16:08:15;4.10;99.90
9951;DHT22;24074;49.254;6.702;2022-12-07T16:10:40;4.10;99.90
9951;DHT22;24074;49.254;6.702;2022-12-07T16:13:09;4.10;99.90
9951;DHT22;24074;49.254;6.702;2022-12-07T16:16:04;4.10;99.90
9951;DHT22;24074;49.254;6.702;2022-12-07T16:18:29;4.10;99.90
9951;DHT22;24074;49.254;6.702;2022-12-07T16:20:55;4.10;99.90
9951;DHT22;24074;49.254;6.702;2022-12-07T16:23:20;4.00;99.90
9951;DHT22;24074;49.254;6.702;2022-12-07T16:25:46;4.00;99.90
9951;DHT22;24074;49.254;6.702;2022-12-07T16:28:11;4.00;99.90
9951;DHT22;24074;49.254;6.702;2022-12-07T16:30:37;4.10;99.90
9951;DHT22;24074;49.254;6.702;2022-12-07T16:33:03;4.00;99.90
9951;DHT22;24074;49.254;6.702;2022-12-07T16:35:28;3.90;99.90
9951;DHT22;24074;49.254;6.702;2022-12-07T16:37:54;4.00;99.90
9951;DHT22;24074;49.254;6.702;2022-12-07T16:40:19;4.00;99.90
9951;DHT22;24074;49.254;6.702;2022-12-07T16:42:45;3.90;99.90
9951;DHT22;24074;49.254;6.702;2022-12-07T16:45:10;3.80;99.90
9951;DHT22;24074;49.254;6.702;2022-12-07T16:47:40;3.70;99.90
9951;DHT22;24074;49.254;6.702;2022-12-07T16:50:06;3.60;99.90
9951;DHT22;24074;49.254;6.702;2022-12-07T16:52:33;3.60;99.90
9951;DHT22;24074;49.254;6.702;2022-12-07T16:54:58;3.60;99.90
9951;DHT22;24074;49.254;6.702;2022-12-07T16:57:24;3.70;99.90
9951;DHT22;24074;49.254;6.702;2022-12-07T16:59:53;3.60;99.90
9951;DHT22;24074;49.254;6.702;2022-12-07T17:02:19;3.60;99.90
9951;DHT22;24074;49.254;6.702;2022-12-07T17:04:45;3.60;99.90
9951;DHT22;24074;49.254;6.702;2022-12-07T17:07:10;3.70;99.90
9951;DHT22;24074;49.254;6.702;2022-12-07T17:09:36;3.70;99.90
9951;DHT22;24074;49.254;6.702;2022-12-07T17:12:02;3.50;99.90
9951;DHT22;24074;49.254;6.702;2022-12-07T17:14:28;3.50;99.90
9951;DHT22;24074;49.254;6.702;2022-12-07T17:17:12;3.30;99.90
9951;DHT22;24074;49.254;6.702;2022-12-07T17:19:38;3.30;99.90
9951;DHT22;24074;49.254;6.702;2022-12-07T17:22:04;3.30;99.90
9951;DHT22;24074;49.254;6.702;2022-12-07T17:24:30;3.30;99.90
9951;DHT22;24074;49.254;6.702;2022-12-07T17:26:56;3.20;99.90
9951;DHT22;24074;49.254;6.702;2022-12-07T17:29:21;3.20;99.90
9951;DHT22;24074;49.254;6.702;2022-12-07T17:31:47;3.00;99.90
9951;DHT22;24074;49.254;6.702;2022-12-07T17:34:14;2.90;99.90
9951;DHT22;24074;49.254;6.702;2022-12-07T17:36:40;2.80;99.90
9951;DHT22;24074;49.254;6.702;2022-12-07T17:39:10;2.70;99.90
9951;DHT22;24074;49.254;6.702;2022-12-07T17:41:37;2.60;99.90
9951;DHT22;24074;49.254;6.702;2022-12-07T17:44:22;2.50;99.90
9951;DHT22;24074;49.254;6.702;2022-12-07T17:46:50;2.50;99.90
9951;DHT22;24074;49.254;6.702;2022-12-07T17:49:20;2.60;99.90
9951;DHT22;24074;49.254;6.702;2022-12-07T17:51:46;2.50;99.90
9951;DHT22;24074;49.254;6.702;2022-12-07T17:54:30;2.40;99.90
9951;DHT22;24074;49.254;6.702;2022-12-07T17:56:56;2.30;99.90
9951;DHT22;24074;49.254;6.702;2022-12-07T17:59:22;2.30;99.90
9951;DHT22;24074;49.254;6.702;2022-12-07T18:01:47;2.50;99.90
9951;DHT22;24074;49.254;6.702;2022-12-07T18:04:13;2.50;99.90
9951;DHT22;24074;49.254;6.702;2022-12-07T18:06:39;2.60;99.90